createdAt,value
2022-09-05T00:04:24.588Z,9.20
2022-09-05T00:09:48.078Z,9.10
2022-09-05T00:15:16.597Z,10.00
2022-09-05T00:24:17.106Z,9.87
2022-09-05T00:26:09.426Z,10.47
2022-09-05T00:31:53.492Z,9.80
2022-09-05T00:36:59.427Z,10.10
2022-09-05T00:42:08.633Z,10.07
2022-09-05T00:47:19.659Z,10.27
2022-09-05T00:52:32.116Z,11.10
2022-09-05T00:57:59.740Z,10.20
2022-09-05T01:03:19.606Z,10.90
2022-09-05T01:08:42.251Z,10.10
2022-09-05T01:13:51.428Z,10.37
2022-09-05T01:19:15.852Z,10.30
2022-09-05T01:24:37.159Z,10.83
2022-09-05T01:29:47.354Z,9.90
2022-09-05T01:35:00.905Z,10.03
2022-09-05T01:40:17.301Z,10.77
2022-09-05T01:45:38.740Z,10.03
2022-09-05T01:50:51.621Z,10.07
2022-09-05T01:56:25.133Z,9.53
2022-09-05T02:01:45.522Z,10.40
2022-09-05T02:07:19.245Z,10.83
2022-09-05T02:12:31.680Z,10.47
2022-09-05T02:17:51.244Z,10.97
2022-09-05T02:23:04.385Z,10.97
2022-09-05T02:28:34.088Z,10.40
2022-09-05T02:33:47.474Z,11.30
2022-09-05T02:45:02.628Z,10.70
2022-09-05T02:45:18.999Z,11.73
2022-09-05T02:51:12.809Z,11.20
2022-09-05T02:57:42.882Z,11.20
2022-09-05T03:01:15.237Z,12.90
2022-09-05T03:06:35.137Z,11.43
2022-09-05T03:12:29.130Z,11.37
2022-09-05T03:17:55.663Z,11.70
2022-09-05T03:23:50.507Z,11.37
2022-09-05T03:29:15.064Z,11.97
2022-09-05T03:34:53.644Z,11.80
2022-09-05T03:40:28.279Z,11.53
2022-09-05T03:45:52.964Z,11.73
2022-09-05T03:57:08.213Z,11.70
2022-09-05T03:57:18.761Z,10.83
2022-09-05T04:08:06.332Z,11.33
2022-09-05T04:08:23.962Z,12.63
2022-09-05T04:13:25.767Z,11.33
2022-09-05T04:18:35.345Z,12.37
2022-09-05T04:23:48.688Z,12.50
2022-09-05T04:29:04.372Z,11.63
2022-09-05T04:34:25.124Z,12.57
2022-09-05T04:39:29.602Z,12.23
2022-09-05T04:44:38.725Z,12.83
2022-09-05T04:49:44.980Z,11.73
2022-09-05T04:54:53.445Z,12.30
2022-09-05T05:04:52.142Z,12.97
2022-09-05T05:06:14.284Z,12.50
2022-09-05T05:17:07.568Z,12.77
2022-09-05T05:18:08.468Z,13.50
2022-09-05T05:22:07.880Z,13.07
2022-09-05T05:27:19.048Z,12.83
2022-09-05T05:32:45.616Z,15.07
2022-09-05T05:37:54.012Z,12.83
2022-09-05T05:43:16.091Z,14.27
2022-09-05T05:48:37.529Z,14.77
2022-09-05T05:53:52.718Z,14.00
2022-09-05T05:59:23.967Z,14.70
2022-09-05T06:05:10.252Z,15.00
2022-09-05T06:14:55.516Z,14.10
2022-09-05T06:16:36.567Z,14.40
2022-09-05T06:22:26.531Z,12.80
2022-09-05T06:28:02.225Z,13.30
2022-09-05T06:33:33.499Z,12.80
2022-09-05T06:39:00.464Z,13.60
2022-09-05T06:44:31.218Z,13.20
2022-09-05T06:49:48.782Z,13.97
2022-09-05T06:55:30.972Z,13.80
2022-09-05T07:00:39.196Z,13.10
2022-09-05T07:05:50.717Z,12.13
2022-09-05T07:11:15.882Z,13.80
2022-09-05T07:16:37.332Z,12.87
2022-09-05T07:21:47.078Z,12.47
2022-09-05T07:26:55.017Z,13.00
2022-09-05T07:31:59.941Z,13.27
2022-09-05T07:37:14.615Z,13.43
2022-09-05T07:42:26.213Z,13.13
2022-09-05T07:47:32.414Z,14.17
2022-09-05T07:56:54.031Z,13.27
2022-09-05T07:58:15.485Z,12.30
2022-09-05T08:03:18.915Z,13.40
2022-09-05T08:08:26.188Z,14.40
2022-09-05T08:13:48.557Z,13.70
2022-09-05T08:18:56.076Z,14.03
2022-09-05T08:24:13.786Z,14.50
2022-09-05T08:29:32.041Z,13.80
2022-09-05T08:34:44.536Z,14.40
2022-09-05T08:39:49.971Z,15.17
2022-09-05T08:46:42.887Z,15.37
2022-09-05T08:51:03.687Z,15.73
2022-09-05T08:56:18.084Z,15.37
2022-09-05T09:01:36.800Z,14.20
2022-09-05T09:07:36.776Z,14.07
2022-09-05T09:13:03.331Z,14.00
2022-09-05T09:18:14.884Z,13.13
2022-09-05T09:23:32.962Z,13.82
2022-09-05T09:28:51.399Z,12.25
2022-09-05T09:34:09.337Z,12.38
2022-09-05T09:39:38.745Z,13.38
2022-09-05T09:45:22.959Z,13.50
2022-09-05T09:50:58.963Z,11.60
2022-09-05T09:56:44.282Z,12.35
2022-09-05T10:02:07.333Z,11.32
2022-09-05T10:10:49.903Z,11.20
2022-09-05T10:13:36.285Z,10.57
2022-09-05T10:18:48.818Z,10.32
2022-09-05T10:24:19.148Z,10.63
2022-09-05T10:29:44.096Z,10.82
2022-09-05T10:35:13.600Z,9.95
2022-09-05T10:40:21.899Z,10.75
2022-09-05T10:45:37.900Z,10.48
2022-09-05T10:50:45.017Z,7.03
2022-09-05T10:56:01.987Z,5.70
2022-09-05T11:02:21.508Z,6.50
2022-09-05T11:06:53.396Z,8.10
2022-09-05T11:12:11.825Z,9.25
2022-09-05T11:17:28.067Z,9.40
2022-09-05T11:22:38.124Z,8.93
2022-09-05T11:27:46.861Z,9.07
2022-09-05T11:39:48.892Z,9.65
2022-09-05T11:40:04.813Z,8.75
2022-09-05T11:44:36.091Z,8.65
2022-09-05T11:50:21.090Z,8.77
2022-09-05T11:55:47.983Z,7.65
2022-09-05T12:01:41.517Z,7.88
2022-09-05T12:06:57.336Z,7.22
2022-09-05T12:12:18.689Z,7.32
2022-09-05T12:17:51.292Z,6.60
2022-09-05T12:22:59.116Z,6.90
2022-09-05T12:29:26.807Z,6.82
2022-09-05T12:36:08.711Z,7.00
2022-09-05T12:41:34.232Z,7.50
2022-09-05T12:44:44.840Z,8.02
2022-09-05T12:50:03.601Z,8.18
2022-09-05T12:55:27.086Z,8.43
2022-09-05T13:03:01.348Z,9.60
2022-09-05T13:06:19.461Z,9.50
2022-09-05T13:14:50.585Z,9.68
2022-09-05T13:16:57.826Z,10.57
2022-09-05T13:22:04.765Z,10.50
2022-09-05T13:27:13.751Z,10.43
2022-09-05T13:38:13.077Z,10.15
2022-09-05T13:38:15.036Z,9.93
2022-09-05T13:43:14.064Z,10.55
2022-09-05T13:49:22.654Z,10.73
2022-09-05T13:54:27.778Z,10.43
2022-09-05T13:59:42.383Z,10.70
2022-09-05T14:05:19.634Z,10.00
2022-09-05T14:11:06.363Z,9.90
2022-09-05T14:16:15.844Z,9.75
2022-09-05T14:21:19.632Z,8.90
2022-09-05T14:26:29.543Z,9.32
2022-09-05T14:37:52.441Z,9.60
2022-09-05T14:37:52.921Z,9.50
2022-09-05T14:43:05.585Z,9.77
2022-09-05T14:48:39.349Z,9.35
2022-09-05T14:54:00.466Z,9.20
2022-09-05T15:02:49.443Z,10.90
2022-09-05T15:04:45.638Z,9.32
2022-09-05T15:12:14.822Z,9.38
2022-09-05T15:15:35.979Z,9.18
2022-09-05T15:20:41.100Z,8.85
2022-09-05T15:25:47.322Z,8.82
2022-09-05T15:31:01.202Z,9.10
2022-09-05T15:36:06.753Z,8.82
2022-09-05T15:41:20.591Z,8.23
2022-09-05T15:46:34.304Z,9.02
2022-09-05T15:51:45.940Z,9.80
2022-09-05T15:56:52.522Z,9.53
2022-09-05T16:02:00.585Z,8.70
2022-09-05T16:10:42.034Z,9.33
2022-09-05T16:12:36.720Z,9.00
2022-09-05T16:23:18.357Z,8.93
2022-09-05T16:23:39.372Z,8.90
2022-09-05T16:28:42.797Z,8.70
2022-09-05T16:33:48.564Z,9.33
2022-09-05T16:38:57.296Z,7.90
2022-09-05T16:44:04.485Z,8.43
2022-09-05T16:49:16.250Z,7.70
2022-09-05T16:54:27.032Z,7.30
2022-09-05T16:59:33.174Z,7.73
2022-09-05T17:05:03.472Z,8.13
2022-09-05T17:10:11.739Z,8.50
2022-09-05T17:15:18.180Z,9.97
2022-09-05T17:20:24.952Z,9.70
2022-09-05T17:29:24.595Z,10.47
2022-09-05T17:36:41.150Z,9.90
2022-09-05T17:42:15.081Z,10.10
2022-09-05T17:47:35.336Z,9.40
2022-09-05T17:53:26.602Z,11.40
2022-09-05T17:58:49.292Z,11.20
2022-09-05T18:04:16.268Z,11.40
2022-09-05T18:10:05.927Z,13.47
2022-09-05T18:15:19.985Z,11.30
2022-09-05T18:20:33.389Z,11.37
2022-09-05T18:25:49.256Z,11.27
2022-09-05T18:30:53.773Z,11.90
2022-09-05T18:36:35.300Z,12.17
2022-09-05T18:41:40.807Z,12.73
2022-09-05T18:46:49.835Z,12.07
2022-09-05T18:51:58.250Z,14.07
2022-09-05T18:57:19.962Z,13.43
2022-09-05T19:02:50.627Z,13.20
2022-09-05T19:07:59.489Z,13.93
2022-09-05T19:13:13.053Z,14.30
2022-09-05T19:18:26.823Z,15.20
2022-09-05T19:23:34.303Z,15.03
2022-09-05T19:36:44.047Z,14.10
2022-09-05T19:37:12.346Z,13.53
2022-09-05T19:43:07.444Z,14.40
2022-09-05T19:47:48.946Z,15.27
2022-09-05T19:50:29.321Z,13.07
2022-09-05T19:55:37.480Z,15.43
2022-09-05T20:00:42.165Z,13.83
2022-09-05T20:05:51.513Z,14.10
2022-09-05T20:11:01.700Z,15.73
2022-09-05T20:16:04.884Z,13.77
2022-09-05T20:21:11.929Z,14.10
2022-09-05T20:26:15.189Z,14.40
2022-09-05T20:31:25.250Z,14.30
2022-09-05T20:43:07.830Z,15.10
2022-09-05T20:43:21.935Z,15.50
2022-09-05T20:51:00.605Z,13.97
2022-09-05T20:54:20.157Z,15.03
2022-09-05T20:58:18.090Z,13.90
2022-09-05T21:03:27.953Z,14.17
2022-09-05T21:08:34.504Z,14.10
2022-09-05T21:13:52.596Z,13.70
2022-09-05T21:18:56.332Z,14.97
2022-09-05T21:24:23.998Z,13.13
2022-09-05T21:29:33.133Z,15.03
2022-09-05T21:34:44.806Z,14.30
2022-09-05T21:39:59.564Z,15.20
2022-09-05T21:47:44.088Z,14.47
2022-09-05T21:50:31.316Z,14.33
2022-09-05T21:59:21.572Z,13.80
2022-09-05T22:00:59.591Z,13.50
2022-09-05T22:06:07.273Z,14.67
2022-09-05T22:11:13.802Z,13.80
2022-09-05T22:16:17.082Z,15.20
2022-09-05T22:21:32.716Z,14.73
2022-09-05T22:26:46.370Z,14.70
2022-09-05T22:32:07.735Z,14.17
2022-09-05T22:37:10.838Z,13.83
2022-09-05T22:42:15.547Z,14.57
2022-09-05T22:47:19.945Z,14.03
2022-09-05T22:52:23.242Z,13.50
2022-09-05T22:57:27.514Z,15.40
2022-09-05T23:02:30.483Z,15.63
2022-09-05T23:07:33.605Z,15.43
2022-09-05T23:12:38.322Z,16.80
2022-09-05T23:17:41.272Z,16.40
2022-09-05T23:22:44.271Z,16.80
2022-09-05T23:27:48.882Z,16.47
2022-09-05T23:32:53.159Z,16.03
2022-09-05T23:37:56.200Z,15.40
2022-09-05T23:43:01.244Z,15.40
2022-09-05T23:48:04.685Z,13.63
2022-09-05T23:53:08.280Z,14.43
2022-09-05T23:58:13.580Z,15.03
